createdAt,value
2018-06-09T00:00:52.977Z,60.97
2018-06-09T00:03:21.187Z,62.27
2018-06-09T00:05:49.628Z,61.57
2018-06-09T00:08:17.861Z,60.93
2018-06-09T00:10:46.017Z,59.40
2018-06-09T00:13:14.235Z,60.97
2018-06-09T00:15:42.408Z,59.93
2018-06-09T00:18:10.644Z,59.77
2018-06-09T00:20:38.825Z,59.33
2018-06-09T00:23:07.026Z,61.17
2018-06-09T00:25:35.231Z,61.10
2018-06-09T00:28:03.652Z,60.77
2018-06-09T00:30:31.873Z,61.60
2018-06-09T00:33:11.146Z,61.27
2018-06-09T00:35:39.364Z,60.97
2018-06-09T00:38:08.991Z,63.30
2018-06-09T00:40:37.346Z,59.53
2018-06-09T00:43:06.561Z,55.23
2018-06-09T00:45:35.325Z,52.47
2018-06-09T00:48:03.776Z,46.27
2018-06-09T00:50:31.994Z,40.93
2018-06-09T00:53:00.297Z,39.67
2018-06-09T00:55:28.501Z,35.37
2018-06-09T00:57:56.688Z,34.50
2018-06-09T01:00:24.956Z,34.27
2018-06-09T01:02:53.113Z,37.73
2018-06-09T01:05:21.330Z,38.87
2018-06-09T01:07:49.506Z,36.10
2018-06-09T01:10:17.682Z,37.90
2018-06-09T01:12:45.866Z,39.83
2018-06-09T01:15:14.135Z,37.87
2018-06-09T01:17:42.312Z,37.10
2018-06-09T01:20:10.499Z,39.47
2018-06-09T01:22:38.676Z,39.70
2018-06-09T01:25:06.897Z,39.43
2018-06-09T01:27:35.137Z,38.67
2018-06-09T01:30:03.333Z,38.33
2018-06-09T01:32:31.530Z,39.33
2018-06-09T01:34:59.738Z,42.00
2018-06-09T01:37:28.188Z,39.80
2018-06-09T01:39:56.391Z,36.23
2018-06-09T01:42:24.583Z,37.03
2018-06-09T01:44:52.781Z,37.23
2018-06-09T01:47:21.148Z,38.87
2018-06-09T01:49:49.337Z,39.90
2018-06-09T01:52:17.816Z,40.43
2018-06-09T01:54:46.032Z,39.53
2018-06-09T01:57:14.247Z,39.07
2018-06-09T01:59:42.421Z,39.40
2018-06-09T02:02:10.833Z,40.07
2018-06-09T02:04:39.036Z,39.67
2018-06-09T02:07:07.608Z,40.07
2018-06-09T02:09:35.814Z,39.37
2018-06-09T02:12:04.280Z,40.53
2018-06-09T02:14:32.734Z,40.30
2018-06-09T02:17:00.897Z,40.33
2018-06-09T02:19:29.139Z,39.87
2018-06-09T02:21:57.282Z,39.63
2018-06-09T02:24:25.499Z,39.73
2018-06-09T02:26:53.701Z,40.63
2018-06-09T02:29:21.890Z,41.13
2018-06-09T02:31:50.096Z,41.40
2018-06-09T02:34:18.260Z,40.80
2018-06-09T02:36:46.441Z,39.13
2018-06-09T02:39:14.620Z,38.33
2018-06-09T02:41:42.806Z,37.93
2018-06-09T02:44:11.005Z,37.33
2018-06-09T02:46:39.210Z,39.13
2018-06-09T02:49:07.392Z,40.43
2018-06-09T02:51:35.608Z,39.50
2018-06-09T02:54:03.843Z,38.90
2018-06-09T02:56:32.069Z,40.80
2018-06-09T02:59:00.249Z,41.10
2018-06-09T03:01:28.408Z,41.17
2018-06-09T03:03:56.596Z,41.17
2018-06-09T03:06:24.788Z,42.80
2018-06-09T03:08:52.980Z,41.00
2018-06-09T03:11:21.204Z,38.67
2018-06-09T03:13:49.404Z,39.03
2018-06-09T03:16:17.565Z,34.67
2018-06-09T03:18:45.786Z,34.13
2018-06-09T03:21:13.971Z,34.10
2018-06-09T03:23:42.392Z,33.17
2018-06-09T03:26:10.584Z,31.93
2018-06-09T03:28:38.773Z,31.77
2018-06-09T03:31:06.942Z,31.80
2018-06-09T03:33:35.144Z,31.60
2018-06-09T03:36:03.393Z,31.93
2018-06-09T03:38:31.575Z,31.90
2018-06-09T03:40:59.752Z,32.20
2018-06-09T03:43:27.995Z,33.17
2018-06-09T03:45:56.157Z,33.17
2018-06-09T03:48:24.363Z,31.93
2018-06-09T03:50:52.284Z,31.43
2018-06-09T03:53:20.720Z,30.80
2018-06-09T03:55:48.940Z,30.33
2018-06-09T03:58:17.137Z,28.97
2018-06-09T04:00:45.326Z,29.17
2018-06-09T04:03:13.551Z,28.07
2018-06-09T04:05:41.789Z,26.73
2018-06-09T04:08:10.265Z,25.23
2018-06-09T04:10:38.478Z,24.07
2018-06-09T04:13:06.720Z,22.17
2018-06-09T04:15:34.962Z,22.97
2018-06-09T04:18:03.113Z,22.33
2018-06-09T04:20:31.743Z,21.83
2018-06-09T04:23:00.266Z,21.43
2018-06-09T04:25:28.473Z,20.83
2018-06-09T04:27:56.465Z,18.70
2018-06-09T04:30:24.663Z,18.67
2018-06-09T04:32:52.870Z,18.67
2018-06-09T04:35:21.380Z,19.00
2018-06-09T04:37:49.567Z,18.90
2018-06-09T04:40:17.503Z,19.30
2018-06-09T04:42:46.041Z,18.93
2018-06-09T04:45:14.200Z,19.47
2018-06-09T04:47:42.404Z,20.83
2018-06-09T04:50:11.299Z,21.13
2018-06-09T04:52:39.251Z,21.60
2018-06-09T04:55:07.452Z,19.53
2018-06-09T04:57:35.663Z,19.20
2018-06-09T05:00:03.840Z,17.50
2018-06-09T05:02:32.077Z,17.23
2018-06-09T05:05:00.588Z,18.40
2018-06-09T05:07:28.788Z,16.73
2018-06-09T05:09:57.060Z,16.63
2018-06-09T05:12:25.192Z,16.23
2018-06-09T05:14:53.350Z,15.50
2018-06-09T05:17:21.536Z,15.90
2018-06-09T05:19:49.685Z,16.20
2018-06-09T05:22:17.857Z,15.60
2018-06-09T05:24:46.300Z,15.87
2018-06-09T05:27:14.520Z,15.83
2018-06-09T05:29:42.695Z,15.73
2018-06-09T05:32:11.232Z,14.77
2018-06-09T05:34:39.791Z,15.13
2018-06-09T05:37:07.977Z,15.20
2018-06-09T05:39:36.193Z,14.37
2018-06-09T05:42:04.373Z,13.80
2018-06-09T05:44:32.570Z,14.63
2018-06-09T05:47:01.177Z,14.70
2018-06-09T05:49:29.393Z,13.83
2018-06-09T05:51:57.508Z,14.83
2018-06-09T05:54:25.736Z,14.50
2018-06-09T05:56:53.916Z,14.53
2018-06-09T05:59:22.164Z,14.20
2018-06-09T06:01:50.365Z,14.17
2018-06-09T06:04:18.636Z,14.67
2018-06-09T06:06:46.862Z,14.53
2018-06-09T06:09:15.059Z,14.10
2018-06-09T06:11:43.552Z,14.17
2018-06-09T06:14:11.749Z,14.43
2018-06-09T06:16:40.304Z,14.23
2018-06-09T06:19:08.522Z,14.67
2018-06-09T06:21:36.689Z,14.07
2018-06-09T06:24:04.907Z,13.73
2018-06-09T06:26:33.135Z,14.57
2018-06-09T06:29:01.305Z,14.83
2018-06-09T06:31:29.536Z,13.67
2018-06-09T06:33:57.742Z,14.20
2018-06-09T06:36:25.936Z,14.27
2018-06-09T06:38:54.452Z,13.47
2018-06-09T06:41:22.649Z,13.33
2018-06-09T06:43:50.837Z,12.77
2018-06-09T06:46:19.016Z,13.23
2018-06-09T06:48:47.232Z,12.57
2018-06-09T06:51:15.448Z,13.33
2018-06-09T06:53:43.636Z,12.93
2018-06-09T06:56:11.829Z,12.57
2018-06-09T06:58:40.016Z,13.10
2018-06-09T07:01:08.193Z,13.20
2018-06-09T07:03:36.423Z,13.03
2018-06-09T07:06:04.511Z,12.77
2018-06-09T07:08:32.661Z,11.27
2018-06-09T07:11:00.930Z,12.13
2018-06-09T07:13:29.145Z,12.20
2018-06-09T07:15:57.587Z,11.27
2018-06-09T07:18:25.789Z,11.67
2018-06-09T07:20:54.006Z,12.40
2018-06-09T07:23:22.181Z,11.73
2018-06-09T07:25:50.447Z,12.47
2018-06-09T07:28:18.645Z,11.83
2018-06-09T07:30:46.810Z,12.10
2018-06-09T07:33:15.005Z,11.90
2018-06-09T07:35:43.193Z,11.77
2018-06-09T07:38:11.424Z,11.70
2018-06-09T07:40:39.674Z,12.53
2018-06-09T07:43:07.851Z,12.97
2018-06-09T07:45:36.386Z,12.27
2018-06-09T07:48:04.572Z,12.60
2018-06-09T07:50:32.802Z,12.70
2018-06-09T07:53:01.003Z,12.13
2018-06-09T07:55:29.537Z,12.70
2018-06-09T07:57:57.718Z,12.33
2018-06-09T08:00:26.211Z,12.17
2018-06-09T08:02:54.410Z,12.47
2018-06-09T08:05:22.590Z,11.57
2018-06-09T08:07:50.785Z,11.77
2018-06-09T08:10:18.980Z,11.80
2018-06-09T08:12:47.501Z,12.50
2018-06-09T08:15:15.682Z,11.73
2018-06-09T08:17:43.890Z,12.07
2018-06-09T08:20:12.073Z,13.10
2018-06-09T08:22:40.247Z,11.67
2018-06-09T08:25:08.494Z,12.33
2018-06-09T08:27:36.673Z,12.97
2018-06-09T08:30:05.198Z,11.70
2018-06-09T08:32:33.414Z,11.40
2018-06-09T08:35:01.629Z,11.73
2018-06-09T08:37:29.814Z,11.53
2018-06-09T08:39:58.005Z,11.83
2018-06-09T08:42:26.178Z,11.53
2018-06-09T08:44:54.721Z,12.80
2018-06-09T08:47:22.934Z,11.13
2018-06-09T08:49:51.388Z,12.00
2018-06-09T08:52:19.316Z,12.47
2018-06-09T08:54:47.515Z,11.97
2018-06-09T08:57:15.712Z,12.03
2018-06-09T08:59:43.908Z,11.77
2018-06-09T09:02:12.095Z,12.50
2018-06-09T09:04:40.883Z,12.20
2018-06-09T09:07:09.084Z,10.98
2018-06-09T09:09:37.399Z,11.48
2018-06-09T09:12:05.669Z,11.50
2018-06-09T09:14:33.892Z,11.18
2018-06-09T09:17:02.386Z,10.58
2018-06-09T09:25:44.893Z,12.18
2018-06-09T09:28:13.130Z,11.48
2018-06-09T09:30:41.344Z,11.22
2018-06-09T09:33:09.839Z,11.48
2018-06-09T09:35:38.020Z,12.45
2018-06-09T09:38:06.208Z,11.15
2018-06-09T09:40:34.433Z,12.60
2018-06-09T09:43:02.657Z,12.65
2018-06-09T09:45:30.879Z,11.65
2018-06-09T09:47:59.068Z,12.03
2018-06-09T09:50:27.288Z,11.65
2018-06-09T09:52:55.454Z,12.33
2018-06-09T09:55:23.828Z,11.93
2018-06-09T09:58:01.980Z,11.88
2018-06-09T10:00:39.448Z,12.45
2018-06-09T10:03:07.632Z,12.90
2018-06-09T10:05:37.173Z,13.43
2018-06-09T10:08:05.709Z,13.22
2018-06-09T10:10:33.892Z,13.32
2018-06-09T10:13:02.099Z,12.95
2018-06-09T10:15:31.635Z,13.28
2018-06-09T10:17:59.831Z,13.08
2018-06-09T10:20:28.151Z,12.37
2018-06-09T10:22:56.367Z,13.53
2018-06-09T10:25:24.535Z,13.32
2018-06-09T10:27:52.711Z,13.93
2018-06-09T10:30:21.100Z,13.75
2018-06-09T10:32:50.293Z,14.73
2018-06-09T10:35:18.379Z,14.10
2018-06-09T10:37:46.602Z,16.05
2018-06-09T10:40:14.787Z,15.58
2018-06-09T10:42:43.319Z,13.88
2018-06-09T10:45:11.580Z,16.02
2018-06-09T10:47:39.775Z,14.90
2018-06-09T10:50:07.977Z,14.30
2018-06-09T10:52:36.172Z,13.98
2018-06-09T10:55:04.345Z,16.32
2018-06-09T10:57:32.580Z,12.70
2018-06-09T11:00:00.734Z,15.00
2018-06-09T11:02:28.914Z,15.65
2018-06-09T11:04:57.082Z,15.53
2018-06-09T11:07:25.279Z,15.75
2018-06-09T11:09:53.513Z,14.33
2018-06-09T11:12:21.705Z,13.38
2018-06-09T11:14:49.919Z,12.28
2018-06-09T11:17:18.114Z,13.18
2018-06-09T11:19:46.282Z,12.18
2018-06-09T11:22:14.642Z,12.33
2018-06-09T11:24:42.835Z,13.83
2018-06-09T11:27:11.076Z,14.20
2018-06-09T11:29:39.265Z,12.93
2018-06-09T11:32:08.316Z,13.40
2018-06-09T11:34:36.893Z,11.95
2018-06-09T11:37:05.437Z,12.65
2018-06-09T11:39:33.649Z,11.80
2018-06-09T11:42:02.172Z,11.97
2018-06-09T11:44:30.371Z,13.43
2018-06-09T11:46:58.590Z,11.55
2018-06-09T11:49:26.765Z,11.60
2018-06-09T11:51:54.961Z,11.93
2018-06-09T11:54:23.153Z,11.63
2018-06-09T11:56:51.320Z,11.05
2018-06-09T11:59:19.526Z,10.98
2018-06-09T12:01:47.717Z,11.85
2018-06-09T12:04:15.868Z,11.55
2018-06-09T12:06:44.094Z,11.93
2018-06-09T12:09:12.266Z,10.95
2018-06-09T12:11:40.497Z,10.68
2018-06-09T12:14:08.682Z,10.95
2018-06-09T12:16:36.841Z,10.58
2018-06-09T12:19:05.086Z,11.43
2018-06-09T12:21:33.296Z,10.45
2018-06-09T12:24:01.588Z,10.95
2018-06-09T12:26:30.060Z,11.75
2018-06-09T12:28:58.257Z,10.68
2018-06-09T12:31:26.775Z,12.25
2018-06-09T12:33:55.265Z,10.65
2018-06-09T12:36:25.304Z,11.10
2018-06-09T12:38:53.465Z,11.35
2018-06-09T12:41:21.673Z,12.25
2018-06-09T12:43:50.116Z,12.35
2018-06-09T12:46:18.314Z,10.82
2018-06-09T12:48:46.540Z,11.33
2018-06-09T12:51:15.080Z,11.35
2018-06-09T12:53:43.345Z,10.48
2018-06-09T12:56:11.521Z,12.47
2018-06-09T12:58:39.716Z,10.45
2018-06-09T13:01:08.197Z,11.83
2018-06-09T13:03:36.390Z,10.38
2018-06-09T13:06:04.552Z,10.63
2018-06-09T13:08:32.729Z,9.35
2018-06-09T13:11:00.962Z,11.25
2018-06-09T13:13:29.157Z,10.32
2018-06-09T13:15:57.351Z,10.45
2018-06-09T13:18:25.521Z,12.35
2018-06-09T13:20:53.705Z,11.18
2018-06-09T13:23:21.899Z,10.98
2018-06-09T13:25:50.383Z,10.70
2018-06-09T13:28:18.551Z,12.07
2018-06-09T13:30:46.706Z,10.13
2018-06-09T13:33:15.131Z,11.15
2018-06-09T13:35:43.569Z,10.05
2018-06-09T13:38:11.755Z,9.15
2018-06-09T13:40:39.921Z,9.50
2018-06-09T13:43:08.461Z,10.10
2018-06-09T13:45:36.995Z,9.60
2018-06-09T13:48:05.186Z,10.40
2018-06-09T13:50:33.551Z,10.28
2018-06-09T13:53:02.096Z,9.78
2018-06-09T13:55:30.276Z,7.87
2018-06-09T13:57:58.761Z,10.18
2018-06-09T14:00:26.931Z,8.55
2018-06-09T14:02:55.119Z,8.88
2018-06-09T14:05:23.325Z,8.98
2018-06-09T14:07:51.755Z,9.90
2018-06-09T14:10:19.758Z,9.48
2018-06-09T14:12:47.949Z,9.98
2018-06-09T14:15:16.158Z,8.13
2018-06-09T14:17:44.368Z,9.15
2018-06-09T14:20:12.571Z,9.13
2018-06-09T14:22:40.789Z,8.58
2018-06-09T14:25:08.946Z,8.43
2018-06-09T14:27:37.425Z,8.38
2018-06-09T14:30:05.623Z,8.68
2018-06-09T14:32:33.786Z,8.25
2018-06-09T14:35:01.992Z,8.48
2018-06-09T14:37:30.176Z,8.70
2018-06-09T14:39:58.336Z,8.70
2018-06-09T14:42:26.591Z,8.53
2018-06-09T14:44:54.842Z,7.90
2018-06-09T14:47:23.047Z,8.08
2018-06-09T14:49:51.226Z,8.73
2018-06-09T14:52:19.425Z,8.23
2018-06-09T14:54:47.607Z,8.68
2018-06-09T14:57:15.774Z,9.20
2018-06-09T14:59:43.996Z,8.53
2018-06-09T15:02:12.527Z,9.40
2018-06-09T15:04:40.701Z,10.15
2018-06-09T15:07:08.888Z,10.50
2018-06-09T15:09:37.050Z,11.20
2018-06-09T15:12:05.225Z,10.65
2018-06-09T15:14:33.457Z,11.57
2018-06-09T15:17:01.869Z,11.50
2018-06-09T15:19:29.867Z,11.10
2018-06-09T15:21:58.041Z,12.58
2018-06-09T15:24:26.446Z,11.40
2018-06-09T15:26:54.636Z,10.93
2018-06-09T15:29:23.203Z,11.25
2018-06-09T15:31:51.756Z,10.25
2018-06-09T15:34:19.972Z,10.35
2018-06-09T15:36:48.155Z,12.18
2018-06-09T15:39:16.336Z,11.63
2018-06-09T15:41:44.573Z,12.95
2018-06-09T15:44:12.774Z,12.73
2018-06-09T15:46:40.984Z,12.73
2018-06-09T15:49:09.367Z,11.28
2018-06-09T15:51:37.561Z,13.03
2018-06-09T15:54:05.796Z,11.60
2018-06-09T15:56:34.026Z,12.37
2018-06-09T15:59:02.203Z,11.75
2018-06-09T16:01:30.428Z,12.88
2018-06-09T16:03:58.690Z,12.10
2018-06-09T16:06:26.920Z,11.40
2018-06-09T16:08:55.211Z,11.83
2018-06-09T16:11:23.446Z,11.25
2018-06-09T16:13:51.461Z,11.12
2018-06-09T16:16:19.635Z,12.82
2018-06-09T16:18:47.884Z,11.05
2018-06-09T16:21:16.101Z,11.38
2018-06-09T16:23:44.268Z,10.58
2018-06-09T16:26:12.477Z,12.75
2018-06-09T16:28:40.706Z,13.25
2018-06-09T16:31:08.882Z,11.75
2018-06-09T16:33:37.125Z,12.88
2018-06-09T16:36:05.848Z,11.60
2018-06-09T16:38:34.674Z,13.22
2018-06-09T16:41:02.845Z,12.05
2018-06-09T16:43:31.058Z,11.73
2018-06-09T16:45:59.237Z,12.07
2018-06-09T16:48:27.545Z,10.80
2018-06-09T16:50:55.810Z,10.65
2018-06-09T16:53:23.966Z,11.12
2018-06-09T16:55:52.156Z,11.57
2018-06-09T16:58:20.924Z,10.18
2018-06-09T17:00:49.085Z,11.63
2018-06-09T17:03:17.272Z,10.82
2018-06-09T17:05:45.434Z,11.43
2018-06-09T17:08:13.603Z,11.50
2018-06-09T17:10:42.138Z,12.07
2018-06-09T17:13:10.307Z,12.07
2018-06-09T17:15:38.479Z,10.63
2018-06-09T17:18:06.966Z,9.93
2018-06-09T17:20:35.151Z,9.55
2018-06-09T17:23:03.345Z,10.55
2018-06-09T17:25:31.533Z,9.20
2018-06-09T17:27:59.743Z,10.78
2018-06-09T17:30:28.249Z,9.38
2018-06-09T17:32:56.447Z,10.38
2018-06-09T17:35:24.654Z,10.72
2018-06-09T17:37:52.868Z,9.45
2018-06-09T17:40:21.082Z,10.50
2018-06-09T17:42:49.238Z,10.85
2018-06-09T17:45:17.180Z,10.50
2018-06-09T17:47:45.389Z,11.00
2018-06-09T17:50:13.563Z,12.05
2018-06-09T17:52:41.762Z,11.33
2018-06-09T17:55:09.976Z,11.08
2018-06-09T17:57:38.181Z,10.88
2018-06-09T18:00:06.662Z,10.58
2018-06-09T18:02:35.496Z,10.13
2018-06-09T18:05:03.709Z,11.00
2018-06-09T18:07:31.929Z,10.85
2018-06-09T18:10:00.121Z,11.28
2018-06-09T18:12:28.335Z,10.43
2018-06-09T18:14:56.934Z,10.72
2018-06-09T18:17:25.139Z,11.68
2018-06-09T18:19:53.365Z,11.90
2018-06-09T18:22:21.823Z,11.60
2018-06-09T18:24:50.131Z,10.75
2018-06-09T18:27:18.338Z,11.88
2018-06-09T18:29:46.584Z,12.28
2018-06-09T18:32:14.536Z,11.93
2018-06-09T18:34:42.754Z,11.73
2018-06-09T18:37:11.247Z,12.88
2018-06-09T18:39:39.800Z,15.55
2018-06-09T18:42:08.269Z,12.58
2018-06-09T18:44:36.873Z,11.90
2018-06-09T18:47:05.122Z,12.50
2018-06-09T18:49:34.676Z,12.53
2018-06-09T18:52:02.842Z,12.67
2018-06-09T18:54:31.057Z,13.13
2018-06-09T18:56:59.289Z,12.35
2018-06-09T18:59:27.457Z,12.20
2018-06-09T19:01:55.694Z,12.93
2018-06-09T19:04:23.870Z,12.73
2018-06-09T19:06:52.048Z,12.60
2018-06-09T19:09:20.230Z,13.63
2018-06-09T19:11:48.403Z,13.15
2018-06-09T19:14:16.586Z,12.97
2018-06-09T19:16:44.802Z,13.40
2018-06-09T19:19:12.976Z,13.40
2018-06-09T19:21:41.186Z,13.13
2018-06-09T19:24:09.429Z,14.80
2018-06-09T19:26:37.682Z,14.60
2018-06-09T19:29:06.245Z,13.80
2018-06-09T19:31:34.464Z,14.40
2018-06-09T19:34:02.670Z,14.60
2018-06-09T19:36:30.857Z,15.00
2018-06-09T19:38:59.358Z,15.40
2018-06-09T19:41:27.539Z,16.63
2018-06-09T19:43:56.720Z,16.27
2018-06-09T19:46:25.014Z,15.63
2018-06-09T19:48:53.184Z,16.57
2018-06-09T19:51:21.372Z,16.30
2018-06-09T19:53:49.578Z,16.00
2018-06-09T19:56:17.796Z,14.50
2018-06-09T19:58:46.011Z,14.57
2018-06-09T20:01:14.208Z,15.23
2018-06-09T20:03:42.429Z,14.30
2018-06-09T20:06:10.621Z,13.33
2018-06-09T20:08:38.819Z,13.70
2018-06-09T20:11:07.022Z,13.17
2018-06-09T20:13:35.217Z,12.60
2018-06-09T20:16:03.407Z,9.37
2018-06-09T20:18:31.609Z,8.47
2018-06-09T20:20:59.764Z,8.70
2018-06-09T20:23:27.938Z,7.57
2018-06-09T20:25:56.121Z,6.40
2018-06-09T20:28:24.346Z,6.53
2018-06-09T20:30:52.602Z,6.90
2018-06-09T20:33:20.756Z,7.07
2018-06-09T20:35:48.961Z,6.57
2018-06-09T20:38:17.184Z,6.57
2018-06-09T20:40:45.624Z,6.70
2018-06-09T20:43:13.849Z,6.57
2018-06-09T20:45:42.097Z,6.60
2018-06-09T20:48:10.294Z,6.70
2018-06-09T20:50:38.465Z,6.83
2018-06-09T20:53:06.680Z,6.60
2018-06-09T20:55:34.863Z,6.43
2018-06-09T20:58:03.054Z,6.73
2018-06-09T21:00:31.244Z,7.13
2018-06-09T21:02:59.465Z,6.33
2018-06-09T21:05:27.700Z,6.80
2018-06-09T21:07:56.241Z,6.63
2018-06-09T21:10:24.443Z,6.53
2018-06-09T21:12:52.597Z,6.13
2018-06-09T21:15:20.836Z,6.17
2018-06-09T21:17:49.032Z,7.10
2018-06-09T21:20:17.246Z,7.00
2018-06-09T21:22:45.458Z,6.90
2018-06-09T21:25:13.643Z,6.70
2018-06-09T21:27:47.282Z,6.53
2018-06-09T21:30:16.495Z,7.00
2018-06-09T21:32:47.144Z,6.77
2018-06-09T21:35:31.941Z,7.17
2018-06-09T21:38:05.523Z,7.13
2018-06-09T21:40:39.225Z,7.17
2018-06-09T21:43:12.705Z,7.20
2018-06-09T21:45:46.352Z,6.90
2018-06-09T21:48:14.710Z,7.37
2018-06-09T21:50:42.909Z,7.20
2018-06-09T21:53:11.103Z,7.23
2018-06-09T21:55:39.346Z,7.97
2018-06-09T21:58:07.830Z,7.87
2018-06-09T22:00:36.012Z,7.50
2018-06-09T22:03:04.302Z,7.60
2018-06-09T22:05:32.480Z,7.60
2018-06-09T22:08:00.661Z,7.97
2018-06-09T22:10:28.855Z,7.43
2018-06-09T22:12:57.082Z,7.87
2018-06-09T22:15:25.237Z,7.93
2018-06-09T22:17:53.444Z,8.07
2018-06-09T22:20:21.655Z,7.50
2018-06-09T22:22:49.861Z,7.57
2018-06-09T22:25:23.527Z,7.57
2018-06-09T22:27:51.700Z,7.37
2018-06-09T22:30:19.860Z,8.43
2018-06-09T22:32:48.065Z,8.70
2018-06-09T22:35:16.232Z,8.40
2018-06-09T22:37:44.408Z,8.60
2018-06-09T22:40:12.640Z,8.87
2018-06-09T22:42:40.832Z,8.73
2018-06-09T22:45:09.022Z,8.43
2018-06-09T22:47:37.245Z,8.67
2018-06-09T22:50:05.437Z,9.00
2018-06-09T22:52:33.625Z,9.30
2018-06-09T22:55:01.841Z,9.23
2018-06-09T22:57:30.054Z,9.47
2018-06-09T22:59:58.265Z,10.00
2018-06-09T23:02:26.569Z,9.47
2018-06-09T23:04:54.742Z,9.47
2018-06-09T23:07:22.944Z,9.37
2018-06-09T23:09:51.184Z,9.13
2018-06-09T23:12:19.371Z,9.10
2018-06-09T23:14:47.546Z,9.10
2018-06-09T23:17:15.776Z,9.73
2018-06-09T23:19:43.953Z,10.33
2018-06-09T23:22:12.162Z,10.80
2018-06-09T23:24:40.389Z,10.50
2018-06-09T23:27:08.612Z,10.30
2018-06-09T23:29:36.803Z,10.47
2018-06-09T23:32:04.996Z,9.93
2018-06-09T23:34:33.207Z,9.87
2018-06-09T23:37:01.430Z,9.70
2018-06-09T23:39:29.684Z,10.03
2018-06-09T23:41:57.933Z,9.67
2018-06-09T23:44:26.120Z,9.10
2018-06-09T23:46:54.347Z,9.30
2018-06-09T23:49:22.555Z,9.20
2018-06-09T23:51:50.747Z,9.10
2018-06-09T23:54:18.925Z,8.43
2018-06-09T23:56:47.331Z,8.13
2018-06-09T23:59:15.545Z,7.87
